Time;durP1;ratioP1;P1;durP2;ratioP2;P2;SDS_P1;SDS_P2;PMS_P1;PMS_P2;Temp;Humidity;BMP_temperature;BMP_pressure;BME280_temperature;BME280_humidity;BME280_pressure;Samples;Min_cycle;Max_cycle;Signal;HPM_P1;HPM_P2
2022/08/16 00:02:14;;;;;;;0.10;0.10;;;;;;;;;;5000500;28;20033;-86
2022/08/16 00:04:40;;;;;;;0.03;0.03;;;;;;;;;;4999848;28;20570;-86
2022/08/16 00:07:06;;;;;;;0.10;0.10;;;;;;;;;;5005483;28;20408;-86
2022/08/16 00:09:33;;;;;;;0.10;0.10;;;;;;;;;;4984056;28;20041;-86
2022/08/16 00:11:59;;;;;;;0.00;0.00;;;;;;;;;;5005127;28;20470;-85
2022/08/16 00:14:27;;;;;;;0.00;0.00;;;;;;;;;;5001217;28;20088;-84
2022/08/16 00:16:53;;;;;;;0.00;0.00;;;;;;;;;;4982952;28;20042;-85
2022/08/16 00:19:22;;;;;;;0.05;0.05;;;;;;;;;;5012122;28;20045;-86
2022/08/16 00:21:48;;;;;;;0.00;0.00;;;;;;;;;;4989141;28;20057;-86
2022/08/16 00:24:15;;;;;;;0.03;0.03;;;;;;;;;;4994474;28;20021;-86
2022/08/16 00:26:42;;;;;;;0.00;0.00;;;;;;;;;;5011547;28;20446;-85
2022/08/16 00:29:08;;;;;;;0.00;0.00;;;;;;;;;;5001765;28;20034;-85
2022/08/16 00:31:34;;;;;;;0.00;0.00;;;;;;;;;;4989860;28;20060;-86
2022/08/16 00:34:01;;;;;;;0.75;0.65;;;;;;;;;;5006541;28;20041;-85
2022/08/16 00:36:27;;;;;;;0.10;0.10;;;;;;;;;;4989415;28;20484;-87
2022/08/16 00:38:54;;;;;;;0.30;0.30;;;;;;;;;;4990841;28;20564;-85
2022/08/16 00:41:21;;;;;;;0.10;0.10;;;;;;;;;;4995358;28;20518;-85
2022/08/16 00:43:47;;;;;;;0.00;0.00;;;;;;;;;;5013705;28;20042;-86
2022/08/16 00:46:19;;;;;;;0.08;0.08;;;;;;;;;;4998976;28;20117;-85
2022/08/16 00:48:45;;;;;;;0.00;0.00;;;;;;;;;;4997118;28;20037;-85
2022/08/16 00:51:12;;;;;;;0.00;0.00;;;;;;;;;;4989887;28;20048;-85
2022/08/16 00:53:39;;;;;;;0.00;0.00;;;;;;;;;;4990513;28;20042;-85
2022/08/16 00:56:07;;;;;;;0.10;0.10;;;;;;;;;;4992236;28;20042;-85
2022/08/16 00:58:34;;;;;;;0.00;0.00;;;;;;;;;;4996941;28;20088;-84
2022/08/16 01:01:00;;;;;;;0.10;0.10;;;;;;;;;;4995714;28;20046;-85
2022/08/16 01:03:27;;;;;;;0.03;0.03;;;;;;;;;;4999477;28;20048;-85
2022/08/16 01:05:54;;;;;;;0.10;0.10;;;;;;;;;;4998144;28;20101;-86
2022/08/16 01:08:23;;;;;;;0.00;0.00;;;;;;;;;;4982776;28;20243;-86
2022/08/16 01:10:49;;;;;;;0.00;0.00;;;;;;;;;;4998971;28;20049;-86
2022/08/16 01:13:18;;;;;;;0.00;0.00;;;;;;;;;;4997804;28;20487;-86
2022/08/16 01:15:53;;;;;;;0.00;0.00;;;;;;;;;;4998455;28;20029;-86
2022/08/16 01:18:21;;;;;;;0.03;0.03;;;;;;;;;;5014850;28;20030;-85
2022/08/16 01:20:52;;;;;;;0.00;0.00;;;;;;;;;;4982985;28;20042;-86
2022/08/16 01:23:29;;;;;;;0.00;0.00;;;;;;;;;;4998941;28;20121;-87
2022/08/16 01:25:56;;;;;;;0.10;0.10;;;;;;;;;;5014764;28;20052;-86
2022/08/16 01:28:23;;;;;;;0.00;0.00;;;;;;;;;;4993874;28;20038;-86
2022/08/16 01:30:52;;;;;;;0.10;0.10;;;;;;;;;;4995552;28;20038;-86
2022/08/16 01:33:19;;;;;;;0.00;0.00;;;;;;;;;;5015613;28;20037;-86
2022/08/16 01:35:48;;;;;;;0.10;0.10;;;;;;;;;;4998229;28;20065;-86
2022/08/16 01:38:23;;;;;;;0.00;0.00;;;;;;;;;;5009344;28;20446;-86
2022/08/16 01:40:50;;;;;;;0.00;0.00;;;;;;;;;;4996240;28;20438;-84
2022/08/16 01:43:16;;;;;;;0.10;0.10;;;;;;;;;;4990268;28;20088;-85
2022/08/16 01:45:43;;;;;;;0.00;0.00;;;;;;;;;;4998408;28;20041;-84
2022/08/16 01:48:09;;;;;;;0.00;0.00;;;;;;;;;;5029601;28;20495;-85
2022/08/16 01:50:38;;;;;;;0.10;0.10;;;;;;;;;;4998324;28;20069;-85
2022/08/16 01:53:04;;;;;;;0.10;0.10;;;;;;;;;;4998819;28;20042;-85
2022/08/16 01:55:30;;;;;;;0.20;0.20;;;;;;;;;;4998393;28;20030;-85
2022/08/16 01:57:56;;;;;;;0.10;0.10;;;;;;;;;;4998499;28;20089;-85
2022/08/16 02:00:22;;;;;;;0.00;0.00;;;;;;;;;;4998170;28;20054;-86
2022/08/16 02:02:48;;;;;;;0.10;0.10;;;;;;;;;;5011586;28;20411;-84
2022/08/16 02:05:14;;;;;;;0.03;0.03;;;;;;;;;;4997208;28;20454;-86
2022/08/16 02:07:42;;;;;;;0.10;0.10;;;;;;;;;;4997630;28;20408;-85
2022/08/16 02:10:08;;;;;;;0.10;0.10;;;;;;;;;;4998441;28;20119;-85
2022/08/16 02:12:35;;;;;;;0.10;0.10;;;;;;;;;;4997577;28;20037;-86
2022/08/16 02:15:02;;;;;;;0.10;0.10;;;;;;;;;;4989531;28;20053;-86
2022/08/16 02:17:29;;;;;;;0.03;0.03;;;;;;;;;;5009275;28;20042;-86
2022/08/16 02:19:56;;;;;;;0.10;0.10;;;;;;;;;;4998258;28;20038;-85
2022/08/16 02:22:23;;;;;;;0.00;0.00;;;;;;;;;;4998291;28;20438;-85
2022/08/16 02:24:50;;;;;;;0.10;0.10;;;;;;;;;;5014521;28;20037;-86
2022/08/16 02:27:16;;;;;;;0.00;0.00;;;;;;;;;;4999678;28;20038;-86
2022/08/16 02:29:42;;;;;;;0.03;0.03;;;;;;;;;;4997619;28;20045;-86
2022/08/16 02:32:12;;;;;;;0.00;0.00;;;;;;;;;;4986184;28;20661;-85
2022/08/16 02:34:40;;;;;;;0.00;0.00;;;;;;;;;;5002122;28;20084;-85
2022/08/16 02:37:06;;;;;;;0.10;0.10;;;;;;;;;;5001927;28;20694;-85
2022/08/16 02:39:32;;;;;;;0.10;0.10;;;;;;;;;;5002097;28;20053;-85
2022/08/16 02:41:59;;;;;;;0.10;0.10;;;;;;;;;;5018134;28;20045;-84
2022/08/16 02:44:25;;;;;;;0.10;0.10;;;;;;;;;;5001612;28;20048;-85
2022/08/16 02:46:51;;;;;;;0.03;0.03;;;;;;;;;;4999632;28;20124;-85
2022/08/16 02:49:17;;;;;;;0.00;0.00;;;;;;;;;;5001495;28;20069;-86
2022/08/16 02:51:43;;;;;;;0.05;0.05;;;;;;;;;;4989317;28;20039;-85
2022/08/16 02:54:10;;;;;;;0.10;0.10;;;;;;;;;;5009431;28;20076;-85
2022/08/16 02:56:36;;;;;;;0.00;0.00;;;;;;;;;;5000817;28;20415;-85
2022/08/16 02:59:03;;;;;;;0.10;0.10;;;;;;;;;;5001609;28;20095;-86
2022/08/16 03:01:31;;;;;;;0.10;0.10;;;;;;;;;;4998566;28;20048;-85
2022/08/16 03:04:00;;;;;;;0.03;0.03;;;;;;;;;;5001573;28;20045;-85
2022/08/16 03:06:27;;;;;;;0.10;0.10;;;;;;;;;;5001059;28;20046;-86
2022/08/16 03:08:53;;;;;;;0.10;0.10;;;;;;;;;;5017788;28;20038;-85
2022/08/16 03:11:19;;;;;;;0.10;0.10;;;;;;;;;;5001462;28;20069;-86
2022/08/16 03:13:46;;;;;;;0.03;0.03;;;;;;;;;;5017805;28;20125;-86
2022/08/16 03:16:12;;;;;;;0.10;0.10;;;;;;;;;;5011742;28;20045;-86
2022/08/16 03:18:39;;;;;;;0.00;0.00;;;;;;;;;;5017605;28;20132;-86
2022/08/16 03:21:06;;;;;;;0.00;0.00;;;;;;;;;;5001070;28;20033;-86
2022/08/16 03:23:32;;;;;;;0.05;0.05;;;;;;;;;;5001248;28;20038;-86
2022/08/16 03:25:58;;;;;;;0.00;0.00;;;;;;;;;;4999629;28;20041;-86
2022/08/16 03:28:24;;;;;;;0.00;0.00;;;;;;;;;;5000935;28;20028;-86
2022/08/16 03:30:50;;;;;;;0.00;0.00;;;;;;;;;;5001229;28;20034;-86
2022/08/16 03:33:16;;;;;;;0.00;0.00;;;;;;;;;;4987307;28;20041;-87
2022/08/16 03:35:43;;;;;;;0.10;0.10;;;;;;;;;;5016260;28;20092;-86
2022/08/16 03:38:10;;;;;;;0.00;0.00;;;;;;;;;;5000142;28;20130;-86
2022/08/16 03:40:38;;;;;;;0.00;0.00;;;;;;;;;;4996979;28;20522;-86
2022/08/16 03:43:05;;;;;;;0.00;0.00;;;;;;;;;;5001093;28;20046;-86
2022/08/16 03:45:32;;;;;;;0.00;0.00;;;;;;;;;;4984822;28;20050;-86
2022/08/16 03:47:59;;;;;;;0.10;0.10;;;;;;;;;;5000890;28;20108;-86
2022/08/16 03:50:25;;;;;;;0.10;0.10;;;;;;;;;;5000772;28;20034;-86
2022/08/16 03:52:51;;;;;;;0.10;0.10;;;;;;;;;;5000867;28;20049;-85
2022/08/16 03:55:17;;;;;;;0.00;0.00;;;;;;;;;;4999741;28;20038;-86
2022/08/16 03:57:43;;;;;;;0.00;0.00;;;;;;;;;;5000237;28;20045;-85
2022/08/16 04:00:14;;;;;;;0.00;0.00;;;;;;;;;;5000153;28;20068;-85
2022/08/16 04:02:44;;;;;;;0.10;0.10;;;;;;;;;;4998910;28;20045;-86
2022/08/16 04:05:11;;;;;;;0.85;0.85;;;;;;;;;;5011963;28;20124;-86
2022/08/16 04:07:37;;;;;;;0.35;0.35;;;;;;;;;;5014876;28;20085;-86
2022/08/16 04:10:05;;;;;;;0.00;0.00;;;;;;;;;;5003864;28;20100;-86
2022/08/16 04:12:32;;;;;;;1.02;0.95;;;;;;;;;;5019139;28;20042;-86
2022/08/16 04:14:58;;;;;;;0.05;0.05;;;;;;;;;;4996527;28;20042;-86
2022/08/16 04:17:24;;;;;;;0.03;0.03;;;;;;;;;;4998795;28;20087;-86
2022/08/16 04:19:50;;;;;;;0.00;0.00;;;;;;;;;;4999217;28;20402;-86
2022/08/16 04:22:16;;;;;;;0.10;0.10;;;;;;;;;;4999724;28;20046;-86
2022/08/16 04:24:42;;;;;;;0.00;0.00;;;;;;;;;;5011223;28;20049;-86
2022/08/16 04:27:08;;;;;;;0.10;0.10;;;;;;;;;;4999004;28;20038;-86
2022/08/16 04:29:34;;;;;;;0.00;0.00;;;;;;;;;;4999528;28;20045;-87
2022/08/16 04:32:00;;;;;;;0.00;0.00;;;;;;;;;;4998739;28;20042;-86
2022/08/16 04:34:28;;;;;;;0.00;0.00;;;;;;;;;;5000591;28;20561;-86
2022/08/16 04:36:54;;;;;;;0.10;0.10;;;;;;;;;;4998625;28;20046;-86
2022/08/16 04:39:22;;;;;;;0.00;0.00;;;;;;;;;;5015561;28;20053;-85
2022/08/16 04:41:49;;;;;;;0.10;0.10;;;;;;;;;;4999695;28;20045;-86
2022/08/16 04:44:15;;;;;;;0.00;0.00;;;;;;;;;;4999278;28;20427;-86
2022/08/16 04:46:41;;;;;;;0.10;0.10;;;;;;;;;;4998694;28;20423;-84
2022/08/16 04:49:07;;;;;;;0.00;0.00;;;;;;;;;;4992572;28;20042;-85
2022/08/16 04:51:33;;;;;;;0.00;0.00;;;;;;;;;;5001901;28;20040;-85
2022/08/16 04:53:59;;;;;;;0.00;0.00;;;;;;;;;;4997312;28;20044;-86
2022/08/16 04:56:25;;;;;;;0.10;0.10;;;;;;;;;;5004364;28;20410;-85
2022/08/16 04:58:51;;;;;;;0.20;0.20;;;;;;;;;;4998498;28;20128;-88
2022/08/16 05:01:18;;;;;;;0.00;0.00;;;;;;;;;;4999913;28;20088;-87
2022/08/16 05:03:44;;;;;;;0.03;0.03;;;;;;;;;;5000102;28;20045;-88
2022/08/16 05:06:11;;;;;;;0.00;0.00;;;;;;;;;;4998957;28;20046;-87
2022/08/16 05:08:37;;;;;;;0.10;0.10;;;;;;;;;;4999557;28;20037;-88
2022/08/16 05:11:04;;;;;;;0.08;0.08;;;;;;;;;;5016053;28;20095;-88
2022/08/16 05:13:31;;;;;;;0.00;0.00;;;;;;;;;;5011919;28;20399;-88
2022/08/16 05:15:57;;;;;;;0.00;0.00;;;;;;;;;;5015212;28;20034;-88
2022/08/16 05:18:23;;;;;;;0.20;0.20;;;;;;;;;;4999692;28;20044;-88
2022/08/16 05:20:49;;;;;;;0.10;0.10;;;;;;;;;;5000821;28;20051;-88
2022/08/16 05:23:16;;;;;;;0.10;0.10;;;;;;;;;;4998944;28;20038;-88
2022/08/16 05:25:42;;;;;;;0.00;0.00;;;;;;;;;;4997580;28;20454;-88
2022/08/16 05:28:09;;;;;;;0.00;0.00;;;;;;;;;;5013526;28;20076;-87
2022/08/16 05:30:36;;;;;;;0.10;0.10;;;;;;;;;;4999193;28;20033;-88
2022/08/16 05:33:03;;;;;;;0.10;0.10;;;;;;;;;;4998780;28;20050;-87
2022/08/16 05:35:29;;;;;;;0.05;0.05;;;;;;;;;;5008269;28;20076;-88
2022/08/16 05:37:55;;;;;;;0.10;0.10;;;;;;;;;;4999151;28;20057;-90
2022/08/16 05:40:21;;;;;;;0.00;0.00;;;;;;;;;;4991678;28;20046;-88
2022/08/16 05:42:47;;;;;;;0.10;0.10;;;;;;;;;;4989974;28;20651;-87
2022/08/16 05:45:13;;;;;;;0.10;0.10;;;;;;;;;;5003462;28;20112;-88
2022/08/16 05:47:39;;;;;;;0.00;0.00;;;;;;;;;;5014548;28;20076;-88
2022/08/16 05:50:06;;;;;;;0.03;0.03;;;;;;;;;;5015115;28;20038;-88
2022/08/16 05:52:33;;;;;;;0.00;0.00;;;;;;;;;;5018582;28;20120;-87
2022/08/16 05:54:59;;;;;;;0.00;0.00;;;;;;;;;;5005537;28;20100;-88
2022/08/16 05:57:25;;;;;;;0.10;0.10;;;;;;;;;;5016643;28;20034;-88
2022/08/16 05:59:51;;;;;;;0.15;0.15;;;;;;;;;;5023025;28;20045;-88
2022/08/16 06:02:18;;;;;;;0.00;0.00;;;;;;;;;;5000273;28;20042;-87
2022/08/16 06:04:44;;;;;;;0.10;0.10;;;;;;;;;;4999639;28;20395;-87
2022/08/16 06:07:10;;;;;;;0.00;0.00;;;;;;;;;;4994858;28;20101;-87
2022/08/16 06:09:38;;;;;;;0.00;0.00;;;;;;;;;;5001358;28;20040;-88
2022/08/16 06:12:18;;;;;;;0.00;0.00;;;;;;;;;;5007593;28;20041;-89
2022/08/16 06:14:44;;;;;;;0.10;0.10;;;;;;;;;;5003030;28;20097;-87
2022/08/16 06:17:10;;;;;;;0.10;0.10;;;;;;;;;;5001036;28;20046;-88
2022/08/16 06:19:36;;;;;;;0.00;0.00;;;;;;;;;;4994168;28;20041;-85
2022/08/16 06:22:02;;;;;;;0.00;0.00;;;;;;;;;;5002213;28;20097;-85
2022/08/16 06:24:40;;;;;;;0.10;0.10;;;;;;;;;;4990169;28;20434;-85
2022/08/16 06:27:06;;;;;;;0.00;0.00;;;;;;;;;;5001076;28;20487;-86
2022/08/16 06:29:32;;;;;;;0.10;0.10;;;;;;;;;;5001552;28;20084;-85
2022/08/16 06:31:58;;;;;;;0.00;0.00;;;;;;;;;;5008666;28;20042;-85
2022/08/16 06:34:24;;;;;;;0.00;0.00;;;;;;;;;;5004215;28;20041;-85
2022/08/16 06:36:50;;;;;;;0.05;0.05;;;;;;;;;;5002991;28;20407;-84
2022/08/16 06:39:16;;;;;;;0.10;0.10;;;;;;;;;;4997745;28;20081;-84
2022/08/16 06:41:42;;;;;;;0.10;0.10;;;;;;;;;;5001871;28;20095;-84
2022/08/16 06:44:09;;;;;;;0.05;0.05;;;;;;;;;;4993787;28;20077;-86
2022/08/16 06:46:39;;;;;;;0.00;0.00;;;;;;;;;;5005384;28;20046;-85
2022/08/16 06:49:08;;;;;;;0.10;0.10;;;;;;;;;;5006448;28;20050;-85
2022/08/16 06:51:35;;;;;;;0.00;0.00;;;;;;;;;;5013021;28;20030;-86
2022/08/16 06:54:01;;;;;;;0.10;0.10;;;;;;;;;;4999963;28;20045;-85
2022/08/16 06:56:27;;;;;;;0.10;0.10;;;;;;;;;;5001186;28;20120;-85
2022/08/16 06:58:54;;;;;;;0.08;0.08;;;;;;;;;;5006204;28;20073;-84
2022/08/16 07:01:20;;;;;;;0.10;0.10;;;;;;;;;;5001584;28;20091;-84
2022/08/16 07:03:47;;;;;;;0.08;0.08;;;;;;;;;;5017145;28;20503;-85
2022/08/16 07:06:13;;;;;;;0.00;0.00;;;;;;;;;;5001053;28;20096;-85
2022/08/16 07:08:41;;;;;;;0.70;0.57;;;;;;;;;;5005809;28;20095;-85
2022/08/16 07:11:07;;;;;;;0.03;0.03;;;;;;;;;;5017868;28;20050;-84
2022/08/16 07:13:33;;;;;;;0.00;0.00;;;;;;;;;;4998558;28;20404;-84
2022/08/16 07:16:00;;;;;;;0.00;0.00;;;;;;;;;;4995067;28;20038;-86
2022/08/16 07:18:26;;;;;;;0.00;0.00;;;;;;;;;;5024511;28;20411;-85
2022/08/16 07:20:52;;;;;;;0.00;0.00;;;;;;;;;;5036742;28;20099;-85
2022/08/16 07:23:19;;;;;;;0.10;0.10;;;;;;;;;;5004635;28;20036;-85
2022/08/16 07:25:45;;;;;;;0.00;0.00;;;;;;;;;;5000741;28;20049;-85
2022/08/16 07:28:15;;;;;;;0.10;0.10;;;;;;;;;;5000377;28;20045;-85
2022/08/16 07:30:42;;;;;;;0.10;0.10;;;;;;;;;;5014302;28;20419;-85
2022/08/16 07:33:09;;;;;;;0.13;0.13;;;;;;;;;;4999947;28;20030;-85
2022/08/16 07:35:35;;;;;;;0.00;0.00;;;;;;;;;;5000123;28;20048;-85
2022/08/16 07:38:01;;;;;;;0.10;0.10;;;;;;;;;;4999643;28;20045;-86
2022/08/16 07:40:28;;;;;;;0.00;0.00;;;;;;;;;;5018117;28;20044;-84
2022/08/16 07:42:54;;;;;;;0.00;0.00;;;;;;;;;;5012217;28;20042;-85
2022/08/16 07:45:20;;;;;;;0.00;0.00;;;;;;;;;;4998994;28;20042;-85
2022/08/16 07:47:46;;;;;;;0.00;0.00;;;;;;;;;;5006973;28;20144;-86
2022/08/16 07:50:13;;;;;;;0.00;0.00;;;;;;;;;;4991355;28;20125;-86
2022/08/16 07:52:40;;;;;;;0.10;0.10;;;;;;;;;;5000552;28;20052;-87
2022/08/16 07:55:07;;;;;;;0.05;0.05;;;;;;;;;;5000936;28;20037;-85
2022/08/16 07:57:33;;;;;;;0.00;0.00;;;;;;;;;;5001219;28;20042;-87
2022/08/16 07:59:59;;;;;;;0.00;0.00;;;;;;;;;;5000708;28;20046;-86
2022/08/16 08:02:25;;;;;;;0.00;0.00;;;;;;;;;;5000599;28;20049;-86
2022/08/16 08:04:51;;;;;;;0.00;0.00;;;;;;;;;;5000047;28;20057;-86
2022/08/16 08:07:17;;;;;;;0.10;0.10;;;;;;;;;;4995596;28;20037;-85
2022/08/16 08:09:44;;;;;;;0.00;0.00;;;;;;;;;;5015541;28;20053;-84
2022/08/16 08:12:10;;;;;;;0.00;0.00;;;;;;;;;;5004916;28;20121;-85
2022/08/16 08:14:36;;;;;;;0.00;0.00;;;;;;;;;;5016523;28;20100;-85
2022/08/16 08:17:04;;;;;;;0.00;0.00;;;;;;;;;;5016183;28;20525;-89
2022/08/16 08:19:30;;;;;;;0.00;0.00;;;;;;;;;;5000331;28;20124;-88
2022/08/16 08:21:56;;;;;;;0.00;0.00;;;;;;;;;;5017330;28;20454;-86
2022/08/16 08:24:23;;;;;;;0.05;0.05;;;;;;;;;;4998677;28;20503;-87
2022/08/16 08:26:49;;;;;;;0.10;0.10;;;;;;;;;;4999699;28;20042;-87
2022/08/16 08:29:15;;;;;;;0.10;0.10;;;;;;;;;;5006682;28;20068;-87
2022/08/16 08:31:41;;;;;;;0.00;0.00;;;;;;;;;;4999870;28;20037;-87
2022/08/16 08:34:07;;;;;;;0.00;0.00;;;;;;;;;;5021583;28;20041;-87
2022/08/16 08:36:37;;;;;;;0.10;0.10;;;;;;;;;;5018556;28;20482;-90
2022/08/16 08:39:04;;;;;;;0.10;0.10;;;;;;;;;;5001173;28;20037;-89
2022/08/16 08:41:31;;;;;;;0.08;0.08;;;;;;;;;;5001866;28;20041;-88
2022/08/16 08:43:57;;;;;;;0.00;0.00;;;;;;;;;;5015376;28;20106;-89
2022/08/16 08:46:24;;;;;;;0.00;0.00;;;;;;;;;;5003461;28;20101;-89
2022/08/16 08:48:50;;;;;;;0.08;0.08;;;;;;;;;;4992527;28;20045;-88
2022/08/16 08:51:27;;;;;;;0.10;0.10;;;;;;;;;;4999509;28;20113;-86
2022/08/16 08:53:53;;;;;;;0.10;0.10;;;;;;;;;;5003781;28;20100;-89
2022/08/16 08:56:19;;;;;;;0.10;0.10;;;;;;;;;;4998406;28;20038;-86
2022/08/16 08:58:45;;;;;;;0.20;0.20;;;;;;;;;;5004411;28;20410;-87
2022/08/16 09:01:11;;;;;;;0.00;0.00;;;;;;;;;;5004921;28;20049;-85
2022/08/16 09:03:38;;;;;;;0.10;0.10;;;;;;;;;;4999589;28;20038;-88
2022/08/16 09:06:05;;;;;;;0.10;0.10;;;;;;;;;;5000048;28;20042;-85
2022/08/16 09:08:31;;;;;;;0.00;0.00;;;;;;;;;;5001100;28;20061;-85
2022/08/16 09:10:58;;;;;;;0.05;0.05;;;;;;;;;;4999208;28;20052;-86
2022/08/16 09:13:49;;;;;;;0.10;0.10;;;;;;;;;;5006433;28;20041;-85
2022/08/16 09:16:16;;;;;;;0.10;0.10;;;;;;;;;;5003751;28;20510;-84
2022/08/16 09:18:43;;;;;;;0.00;0.00;;;;;;;;;;5014804;28;20071;-83
2022/08/16 09:21:09;;;;;;;0.10;0.10;;;;;;;;;;5014828;28;20041;-83
2022/08/16 09:23:35;;;;;;;0.00;0.00;;;;;;;;;;5002496;28;20042;-85
2022/08/16 09:26:01;;;;;;;0.00;0.00;;;;;;;;;;5015354;28;20057;-85
2022/08/16 09:28:27;;;;;;;0.03;0.03;;;;;;;;;;4999397;28;20053;-86
2022/08/16 09:30:54;;;;;;;0.00;0.00;;;;;;;;;;4983961;28;20116;-85
2022/08/16 09:33:20;;;;;;;0.30;0.30;;;;;;;;;;5009454;28;20490;-86
2022/08/16 09:35:47;;;;;;;0.00;0.00;;;;;;;;;;5001293;28;20022;-83
2022/08/16 09:38:13;;;;;;;0.00;0.00;;;;;;;;;;4988574;28;20144;-83
2022/08/16 09:40:56;;;;;;;0.00;0.00;;;;;;;;;;5000358;28;20053;-86
2022/08/16 09:43:24;;;;;;;0.00;0.00;;;;;;;;;;4993219;28;20038;-86
2022/08/16 09:45:50;;;;;;;0.10;0.10;;;;;;;;;;4997599;28;20048;-86
2022/08/16 09:48:17;;;;;;;0.00;0.00;;;;;;;;;;5009561;28;20570;-86
2022/08/16 09:50:44;;;;;;;0.10;0.10;;;;;;;;;;5025977;28;20053;-85
2022/08/16 09:53:12;;;;;;;0.00;0.00;;;;;;;;;;5005653;28;20041;-88
2022/08/16 09:55:38;;;;;;;0.00;0.00;;;;;;;;;;5011112;28;20049;-86
2022/08/16 09:58:04;;;;;;;0.00;0.00;;;;;;;;;;4994494;28;20069;-86
2022/08/16 10:00:52;;;;;;;0.10;0.10;;;;;;;;;;4994237;28;20121;-86
2022/08/16 10:03:18;;;;;;;0.10;0.10;;;;;;;;;;5009755;28;20056;-87
2022/08/16 10:05:44;;;;;;;0.15;0.15;;;;;;;;;;5005258;28;20039;-88
2022/08/16 10:08:11;;;;;;;0.03;0.03;;;;;;;;;;4997285;28;20172;-86
2022/08/16 10:10:40;;;;;;;0.00;0.00;;;;;;;;;;5010826;28;20042;-86
2022/08/16 10:13:13;;;;;;;0.00;0.00;;;;;;;;;;4998095;28;20096;-86
2022/08/16 10:15:43;;;;;;;0.10;0.10;;;;;;;;;;5011605;28;20054;-87
2022/08/16 10:18:11;;;;;;;0.00;0.00;;;;;;;;;;4998725;28;20041;-87
2022/08/16 10:20:39;;;;;;;0.10;0.10;;;;;;;;;;4996630;28;20097;-87
2022/08/16 10:23:05;;;;;;;0.00;0.00;;;;;;;;;;4989804;28;20042;-87
2022/08/16 10:25:32;;;;;;;0.00;0.00;;;;;;;;;;4994735;28;20097;-87
2022/08/16 10:27:59;;;;;;;0.10;0.10;;;;;;;;;;4988536;28;20052;-87
2022/08/16 10:30:25;;;;;;;0.00;0.00;;;;;;;;;;4999566;28;20026;-86
2022/08/16 10:32:54;;;;;;;0.00;0.00;;;;;;;;;;4990831;28;20385;-88
2022/08/16 10:35:20;;;;;;;0.00;0.00;;;;;;;;;;5003191;28;20037;-88
2022/08/16 10:37:46;;;;;;;0.00;0.00;;;;;;;;;;4996922;28;20042;-85
2022/08/16 10:40:13;;;;;;;0.10;0.10;;;;;;;;;;4998374;28;20052;-88
2022/08/16 10:42:39;;;;;;;0.00;0.00;;;;;;;;;;5010201;28;20049;-88
2022/08/16 10:45:05;;;;;;;0.00;0.00;;;;;;;;;;4995428;28;20084;-87
2022/08/16 10:47:31;;;;;;;0.10;0.10;;;;;;;;;;4993506;28;20073;-87
2022/08/16 10:49:58;;;;;;;0.10;0.10;;;;;;;;;;4998640;28;20084;-87
2022/08/16 10:52:24;;;;;;;0.10;0.10;;;;;;;;;;4995240;28;20038;-87
2022/08/16 10:54:50;;;;;;;0.00;0.00;;;;;;;;;;5006530;28;20436;-88
2022/08/16 10:57:16;;;;;;;0.00;0.00;;;;;;;;;;5002289;28;20041;-88
2022/08/16 10:59:42;;;;;;;0.00;0.00;;;;;;;;;;4997239;28;20042;-88
2022/08/16 11:02:09;;;;;;;0.08;0.08;;;;;;;;;;4999446;28;20533;-88
2022/08/16 11:04:36;;;;;;;0.00;0.00;;;;;;;;;;5000372;28;20050;-88
2022/08/16 11:07:03;;;;;;;0.10;0.10;;;;;;;;;;4993519;28;20062;-87
2022/08/16 11:09:30;;;;;;;0.00;0.00;;;;;;;;;;5031404;28;20044;-88
2022/08/16 11:11:58;;;;;;;0.00;0.00;;;;;;;;;;5015269;28;20069;-86
2022/08/16 11:14:24;;;;;;;0.00;0.00;;;;;;;;;;4999524;28;20572;-86
2022/08/16 11:16:53;;;;;;;0.00;0.00;;;;;;;;;;4999230;28;20038;-84
2022/08/16 11:19:19;;;;;;;0.00;0.00;;;;;;;;;;5000461;28;20411;-84
2022/08/16 11:21:45;;;;;;;0.00;0.00;;;;;;;;;;5003464;28;20475;-85
2022/08/16 11:24:13;;;;;;;0.00;0.00;;;;;;;;;;5018282;28;20037;-84
2022/08/16 11:26:39;;;;;;;0.00;0.00;;;;;;;;;;4998458;28;20042;-84
2022/08/16 11:29:07;;;;;;;0.00;0.00;;;;;;;;;;4998986;28;20069;-83
2022/08/16 11:31:33;;;;;;;0.00;0.00;;;;;;;;;;4999331;28;20038;-84
2022/08/16 11:33:59;;;;;;;0.00;0.00;;;;;;;;;;4994008;28;20133;-83
2022/08/16 11:36:28;;;;;;;0.10;0.10;;;;;;;;;;5004720;28;20064;-84
2022/08/16 11:38:55;;;;;;;0.10;0.10;;;;;;;;;;5011485;28;20034;-84
2022/08/16 11:41:21;;;;;;;0.00;0.00;;;;;;;;;;5009365;28;20038;-83
2022/08/16 11:43:47;;;;;;;0.00;0.00;;;;;;;;;;4996145;28;20042;-84
2022/08/16 11:46:16;;;;;;;0.00;0.00;;;;;;;;;;5002613;28;20188;-85
2022/08/16 11:48:44;;;;;;;0.00;0.00;;;;;;;;;;4996678;28;20046;-85
2022/08/16 11:51:11;;;;;;;0.00;0.00;;;;;;;;;;5005373;28;20022;-85
2022/08/16 11:53:37;;;;;;;0.08;0.08;;;;;;;;;;5000740;28;20069;-86
2022/08/16 11:56:04;;;;;;;0.00;0.00;;;;;;;;;;4999525;28;20400;-84
2022/08/16 11:58:30;;;;;;;0.55;0.43;;;;;;;;;;4994547;28;20050;-86
2022/08/16 12:00:57;;;;;;;0.00;0.00;;;;;;;;;;4994628;28;20096;-85
2022/08/16 12:03:25;;;;;;;0.10;0.10;;;;;;;;;;4999469;28;20041;-87
2022/08/16 12:05:52;;;;;;;0.10;0.10;;;;;;;;;;4999148;28;20037;-87
2022/08/16 12:08:18;;;;;;;0.00;0.00;;;;;;;;;;4990602;28;20419;-86
2022/08/16 12:10:45;;;;;;;0.00;0.00;;;;;;;;;;5019797;28;20041;-87
2022/08/16 12:13:11;;;;;;;0.00;0.00;;;;;;;;;;5001647;28;20041;-87
2022/08/16 12:15:37;;;;;;;0.08;0.08;;;;;;;;;;5015647;28;20042;-87
2022/08/16 12:18:03;;;;;;;0.10;0.10;;;;;;;;;;4991632;28;20065;-86
2022/08/16 12:20:31;;;;;;;0.00;0.00;;;;;;;;;;4999259;28;20037;-86
2022/08/16 12:22:57;;;;;;;0.00;0.00;;;;;;;;;;5005020;28;20046;-87
2022/08/16 12:25:25;;;;;;;0.00;0.00;;;;;;;;;;5014708;28;20511;-87
2022/08/16 12:27:51;;;;;;;0.10;0.10;;;;;;;;;;4999611;28;20037;-85
2022/08/16 12:30:19;;;;;;;0.00;0.00;;;;;;;;;;5018394;28;20129;-87
2022/08/16 12:32:45;;;;;;;0.00;0.00;;;;;;;;;;4999455;28;20048;-87
2022/08/16 12:35:14;;;;;;;0.00;0.00;;;;;;;;;;5007218;28;20042;-87
2022/08/16 12:37:41;;;;;;;0.00;0.00;;;;;;;;;;4998764;28;20499;-87
2022/08/16 12:40:08;;;;;;;0.00;0.00;;;;;;;;;;5013765;28;20069;-85
2022/08/16 12:42:34;;;;;;;0.00;0.00;;;;;;;;;;4998155;28;20664;-86
2022/08/16 12:45:02;;;;;;;0.00;0.00;;;;;;;;;;4997976;28;20045;-83
2022/08/16 12:50:12;;;;;;;;;;;;;;;;;;5012540;28;20129;-84
2022/08/16 12:52:38;;;;;;;0.00;0.00;;;;;;;;;;4985403;28;19949;-84
2022/08/16 12:55:05;;;;;;;0.00;0.00;;;;;;;;;;4998961;28;20041;-84
2022/08/16 12:57:31;;;;;;;0.00;0.00;;;;;;;;;;4998769;28;20272;-86
2022/08/16 12:59:59;;;;;;;0.00;0.00;;;;;;;;;;5020435;28;20045;-88
2022/08/16 13:02:25;;;;;;;0.10;0.10;;;;;;;;;;4999085;28;20411;-86
2022/08/16 13:04:53;;;;;;;0.10;0.10;;;;;;;;;;4993376;28;20042;-87
2022/08/16 13:07:19;;;;;;;0.10;0.10;;;;;;;;;;5000974;28;20117;-84
2022/08/16 13:09:54;;;;;;;0.08;0.08;;;;;;;;;;5009415;28;20041;-86
2022/08/16 13:12:25;;;;;;;0.00;0.00;;;;;;;;;;4997855;28;20033;-83
2022/08/16 13:14:52;;;;;;;0.00;0.00;;;;;;;;;;5009754;28;20078;-85
2022/08/16 13:17:20;;;;;;;0.00;0.00;;;;;;;;;;5009417;28;20037;-86
2022/08/16 13:19:47;;;;;;;0.00;0.00;;;;;;;;;;5004291;28;20045;-87
2022/08/16 13:22:13;;;;;;;0.10;0.10;;;;;;;;;;5004743;28;20021;-90
2022/08/16 13:24:39;;;;;;;0.00;0.00;;;;;;;;;;5009572;28;20341;-87
2022/08/16 13:27:05;;;;;;;0.00;0.00;;;;;;;;;;4992435;28;20105;-88
2022/08/16 13:29:31;;;;;;;0.00;0.00;;;;;;;;;;4994406;28;20455;-85
2022/08/16 13:31:57;;;;;;;0.00;0.00;;;;;;;;;;5010565;28;20627;-85
2022/08/16 13:34:23;;;;;;;0.08;0.08;;;;;;;;;;5013657;28;20037;-85
2022/08/16 13:36:49;;;;;;;0.00;0.00;;;;;;;;;;5006594;28;20034;-85
2022/08/16 13:39:16;;;;;;;0.10;0.10;;;;;;;;;;4998324;28;20037;-89
2022/08/16 13:41:52;;;;;;;0.10;0.10;;;;;;;;;;4978708;28;20467;-87
2022/08/16 13:44:19;;;;;;;0.10;0.10;;;;;;;;;;5012633;28;20046;-88
2022/08/16 13:46:46;;;;;;;0.00;0.00;;;;;;;;;;4990147;28;20045;-87
2022/08/16 13:49:13;;;;;;;0.00;0.00;;;;;;;;;;5011663;28;20103;-92
2022/08/16 13:51:39;;;;;;;0.00;0.00;;;;;;;;;;5001499;28;20069;-86
2022/08/16 13:54:05;;;;;;;0.00;0.00;;;;;;;;;;4991524;28;20042;-86
2022/08/16 13:56:33;;;;;;;0.00;0.00;;;;;;;;;;5000660;28;20142;-86
2022/08/16 13:58:59;;;;;;;0.10;0.10;;;;;;;;;;5013570;28;20034;-89
2022/08/16 14:01:26;;;;;;;0.00;0.00;;;;;;;;;;4999868;28;20407;-89
2022/08/16 14:03:52;;;;;;;0.10;0.10;;;;;;;;;;4994668;28;20037;-87
2022/08/16 14:06:18;;;;;;;0.00;0.00;;;;;;;;;;4990410;28;20414;-88
2022/08/16 14:08:44;;;;;;;0.00;0.00;;;;;;;;;;4988112;28;20518;-87
2022/08/16 14:11:11;;;;;;;0.00;0.00;;;;;;;;;;5012681;28;20524;-87
2022/08/16 14:13:38;;;;;;;0.00;0.00;;;;;;;;;;4999701;28;20053;-86
2022/08/16 14:16:04;;;;;;;0.10;0.10;;;;;;;;;;4988062;28;21539;-87
2022/08/16 14:18:45;;;;;;;0.10;0.10;;;;;;;;;;5003937;28;20034;-86
2022/08/16 14:21:11;;;;;;;0.10;0.10;;;;;;;;;;5015030;28;20041;-88
2022/08/16 14:23:37;;;;;;;0.00;0.00;;;;;;;;;;5010977;28;20075;-90
2022/08/16 14:26:03;;;;;;;0.10;0.10;;;;;;;;;;4999238;28;20050;-88
2022/08/16 14:28:29;;;;;;;0.10;0.10;;;;;;;;;;5000810;28;20048;-87
2022/08/16 14:30:55;;;;;;;0.00;0.00;;;;;;;;;;4997969;28;20514;-88
2022/08/16 14:33:21;;;;;;;0.00;0.00;;;;;;;;;;5002935;28;20033;-88
2022/08/16 14:35:48;;;;;;;0.00;0.00;;;;;;;;;;5019516;28;20112;-89
2022/08/16 14:38:16;;;;;;;0.00;0.00;;;;;;;;;;5004233;28;20121;-89
2022/08/16 14:40:42;;;;;;;0.00;0.00;;;;;;;;;;5001389;28;20448;-88
2022/08/16 14:43:08;;;;;;;0.00;0.00;;;;;;;;;;5000665;28;20041;-87
2022/08/16 14:45:37;;;;;;;0.00;0.00;;;;;;;;;;5018295;28;20054;-90